»·PEaware :: N383KK 2OR1-KEUG

N383KK :: 2OR1-KEUG

FLIGHT INFORMATION

Flight Status: Arrived
Operator: Privately registered:
United States
More flights under this callsign
Pilot: Tanner C. (11250)
Aircraft: SOCATA TBM-900
(TBM9)
More flights by this aircraft type
Origin: 2OR1 Big Muddy Ranch
United States
Destination: KEUG Mahlon Sweet
United States
More flights between these airports :: More routes between these airports
Route: CUPRI MANTE EUG
File this flight plan on PilotEdge
Remarks:
Altitude:
(Current/Filed)
14,000ft
Speed:
(Current/Filed)
220kts
Departed: 30-Dec-18 04:23 PM
Arrived: 30-Dec-18 05:13 PM
Distance/Time
Traveled:
124nm/0:50
Distance/Time
To Go:
Arrived

Flight Plot

Page will automatically refresh every two minutes.

Flight plan parsing failed; only flown route is shown


Map Options




Map Legend


Flown Route
Filed Route
Departure Airport
Arrival Airport
Navaid (VOR, NDB)
Fix

Horizontal Profiles

Position Reports

Time Latitude Longitude Heading Altitude Ground
Speed
30-Dec-18 16:15 44.826091 -120.498908 63 1644ft 0kts
30-Dec-18 16:16 44.826091 -120.498908 63 1644ft 0kts
30-Dec-18 16:17 44.826098 -120.498889 63 1644ft 1kts
30-Dec-18 16:18 44.827233 -120.498758 0 1644ft 0kts
30-Dec-18 16:19 44.827233 -120.498758 0 1644ft 0kts
30-Dec-18 16:20 44.827233 -120.498758 0 1644ft 0kts
30-Dec-18 16:21 44.827517 -120.498899 342 1644ft 4kts
30-Dec-18 16:22 44.837177 -120.472096 52 2398ft 136kts
30-Dec-18 16:23 44.864601 -120.477388 284 4100ft 151kts
30-Dec-18 16:24 44.851344 -120.534366 248 5898ft 162kts
30-Dec-18 16:25 44.833336 -120.591642 248 7766ft 165kts
30-Dec-18 16:26 44.814545 -120.650251 246 9579ft 173kts
30-Dec-18 16:27 44.797482 -120.702836 252 11670ft 162kts
30-Dec-18 16:28 44.779998 -120.757184 252 13508ft 166kts
30-Dec-18 16:29 44.760566 -120.817486 250 14043ft 211kts
30-Dec-18 16:30 44.737233 -120.889132 250 14025ft 233kts
30-Dec-18 16:31 44.711559 -120.968074 250 14020ft 239kts
30-Dec-18 16:32 44.691696 -121.029023 249 14018ft 241kts
30-Dec-18 16:33 44.676280 -121.076175 249 14018ft 241kts
30-Dec-18 16:34 44.660848 -121.123278 250 14017ft 241kts
30-Dec-18 16:35 44.645226 -121.170889 250 14017ft 241kts
30-Dec-18 16:36 44.630301 -121.217988 258 13987ft 239kts
30-Dec-18 16:37 44.615740 -121.268064 254 13999ft 239kts
30-Dec-18 16:38 44.602987 -121.319753 255 13996ft 239kts
30-Dec-18 16:39 44.590720 -121.372281 256 13996ft 239kts
30-Dec-18 16:40 44.578503 -121.425060 256 13996ft 239kts
30-Dec-18 16:41 44.566312 -121.477679 256 13995ft 239kts
30-Dec-18 16:42 44.553928 -121.531040 256 13995ft 239kts
30-Dec-18 16:43 44.541342 -121.585123 256 13995ft 239kts
30-Dec-18 16:44 44.525366 -121.653529 255 13973ft 240kts
30-Dec-18 16:45 44.515657 -121.695000 255 13974ft 240kts
30-Dec-18 16:46 44.500162 -121.761090 255 13973ft 240kts
30-Dec-18 16:47 44.489055 -121.808331 255 13973ft 240kts
30-Dec-18 16:48 44.477733 -121.856374 255 13972ft 240kts
30-Dec-18 16:49 44.462114 -121.922509 255 13972ft 240kts
30-Dec-18 16:50 44.447714 -121.983316 255 13972ft 240kts
30-Dec-18 16:51 44.432814 -122.046102 255 13971ft 240kts
30-Dec-18 16:52 44.412763 -122.130374 255 13971ft 240kts
30-Dec-18 16:53 44.392270 -122.216199 255 13977ft 240kts
30-Dec-18 16:54 44.368440 -122.299791 245 14066ft 242kts
30-Dec-18 16:55 44.326314 -122.375088 236 13486ft 260kts
30-Dec-18 16:56 44.281551 -122.451123 235 12888ft 264kts
30-Dec-18 16:57 44.235721 -122.529564 235 11724ft 267kts
30-Dec-18 16:58 44.188716 -122.606892 235 10573ft 269kts
30-Dec-18 16:59 44.145408 -122.685092 239 9378ft 277kts
30-Dec-18 17:00 44.104006 -122.766370 238 7068ft 236kts
30-Dec-18 17:01 44.069499 -122.833370 239 5088ft 203kts
30-Dec-18 17:02 44.039228 -122.893278 239 4694ft 199kts
30-Dec-18 17:03 44.006971 -122.956908 240 4240ft 206kts
30-Dec-18 17:04 43.977859 -123.014194 240 3793ft 210kts
30-Dec-18 17:05 43.956545 -123.079587 267 3355ft 164kts
30-Dec-18 17:06 43.958048 -123.123922 288 3370ft 134kts
30-Dec-18 17:07 43.975565 -123.173515 310 3093ft 164kts
30-Dec-18 17:08 44.003606 -123.204912 332 2121ft 108kts
30-Dec-18 17:09 44.034862 -123.217176 352 1680ft 121kts
30-Dec-18 17:10 44.067416 -123.217667 356 1307ft 115kts
30-Dec-18 17:11 44.098856 -123.218586 357 751ft 107kts
30-Dec-18 17:12 44.119421 -123.218729 344 364ft 38kts

Navigation Log

Ident Type
Flight plan parsing failed, navigation log unavailable